createdAt,value
2018-09-10T00:01:57.220Z,97.17
2018-09-10T00:05:01.597Z,95.86
2018-09-10T00:08:05.998Z,96.37
2018-09-10T00:11:10.347Z,96.06
2018-09-10T00:14:14.681Z,96.39
2018-09-10T00:17:18.969Z,95.75
2018-09-10T00:20:23.668Z,96.07
2018-09-10T00:23:29.675Z,95.07
2018-09-10T00:26:34.031Z,94.20
2018-09-10T00:29:38.306Z,94.90
2018-09-10T00:32:42.632Z,94.52
2018-09-10T00:35:46.945Z,94.33
2018-09-10T00:38:51.281Z,94.60
2018-09-10T00:41:55.568Z,94.29
2018-09-10T00:44:59.928Z,94.58
2018-09-10T00:48:04.180Z,94.11
2018-09-10T00:51:08.579Z,93.43
2018-09-10T00:54:12.852Z,93.38
2018-09-10T00:57:17.209Z,93.67
2018-09-10T01:00:21.438Z,93.38
2018-09-10T01:03:25.988Z,93.54
2018-09-10T01:06:30.331Z,93.20
2018-09-10T01:09:34.651Z,93.78
2018-09-10T01:12:38.967Z,93.49
2018-09-10T01:15:43.385Z,93.50
2018-09-10T01:18:47.707Z,93.03
2018-09-10T01:21:52.084Z,92.58
2018-09-10T01:24:56.473Z,92.65
2018-09-10T01:28:00.796Z,92.73
2018-09-10T01:31:05.090Z,92.42
2018-09-10T01:34:14.581Z,92.54
2018-09-10T01:37:18.901Z,92.11
2018-09-10T01:40:23.203Z,91.20
2018-09-10T01:43:27.514Z,91.62
2018-09-10T01:46:31.965Z,91.54
2018-09-10T01:49:36.421Z,90.31
2018-09-10T01:52:40.686Z,90.53
2018-09-10T01:55:44.953Z,90.81
2018-09-10T01:58:49.752Z,90.74
2018-09-10T02:01:54.020Z,89.89
2018-09-10T02:04:58.375Z,89.85
2018-09-10T02:08:02.880Z,90.21
2018-09-10T02:11:07.229Z,90.39
2018-09-10T02:14:11.536Z,90.04
2018-09-10T02:17:15.892Z,89.96
2018-09-10T02:20:20.140Z,89.66
2018-09-10T02:23:24.605Z,89.99
2018-09-10T02:26:29.014Z,89.21
2018-09-10T02:29:33.326Z,89.29
2018-09-10T02:32:37.581Z,89.84
2018-09-10T02:35:41.977Z,89.05
2018-09-10T02:38:46.295Z,89.00
2018-09-10T02:41:50.615Z,88.78
2018-09-10T02:44:54.888Z,88.36
2018-09-10T02:47:59.259Z,88.03
2018-09-10T02:51:03.578Z,87.99
2018-09-10T02:54:08.159Z,87.44
2018-09-10T02:57:12.487Z,87.45
2018-09-10T03:00:16.789Z,87.28
2018-09-10T03:03:21.154Z,87.90
2018-09-10T03:06:25.481Z,88.04
2018-09-10T03:09:29.776Z,87.52
2018-09-10T03:12:34.117Z,88.18
2018-09-10T03:15:38.405Z,87.44
2018-09-10T03:18:43.008Z,87.10
2018-09-10T03:21:47.348Z,87.79
2018-09-10T03:24:51.792Z,87.94
2018-09-10T03:27:56.085Z,87.60
2018-09-10T03:31:00.417Z,88.12
2018-09-10T03:34:04.791Z,87.72
2018-09-10T03:37:09.068Z,88.48
2018-09-10T03:40:13.391Z,89.22
2018-09-10T03:43:17.689Z,88.32
2018-09-10T03:46:22.013Z,88.67
2018-09-10T03:49:26.354Z,89.16
2018-09-10T03:52:30.617Z,89.58
2018-09-10T03:55:35.004Z,90.66
2018-09-10T03:58:39.283Z,90.84
2018-09-10T04:01:43.661Z,91.04
2018-09-10T04:04:47.913Z,91.98
2018-09-10T04:07:52.307Z,92.56
2018-09-10T04:10:56.595Z,93.50
2018-09-10T04:14:00.920Z,93.46
2018-09-10T04:17:05.596Z,94.35
2018-09-10T04:20:11.004Z,94.19
2018-09-10T04:23:15.294Z,94.94
2018-09-10T04:26:19.589Z,94.63
2018-09-10T04:29:23.920Z,94.93
2018-09-10T04:32:28.253Z,95.58
2018-09-10T04:35:32.528Z,95.95
2018-09-10T04:38:36.784Z,96.65
2018-09-10T04:41:42.269Z,96.33
2018-09-10T04:44:46.566Z,96.92
2018-09-10T04:47:50.969Z,97.34
2018-09-10T04:50:55.260Z,97.92
2018-09-10T04:53:59.605Z,98.50
2018-09-10T04:57:03.949Z,98.67
2018-09-10T05:00:08.274Z,98.58
2018-09-10T05:03:12.982Z,98.70
2018-09-10T05:06:17.325Z,99.27
2018-09-10T05:09:21.884Z,99.16
2018-09-10T05:12:26.143Z,99.75
2018-09-10T05:15:30.432Z,100.00
2018-09-10T05:18:34.752Z,100.00
2018-09-10T05:21:39.139Z,100.00
2018-09-10T05:24:43.401Z,100.00
2018-09-10T05:27:47.671Z,100.00
2018-09-10T05:30:51.961Z,100.00
2018-09-10T05:33:56.291Z,100.00
2018-09-10T05:37:00.600Z,100.00
2018-09-10T05:40:07.359Z,100.00
2018-09-10T05:43:11.708Z,100.00
2018-09-10T05:46:15.998Z,100.00
2018-09-10T05:49:20.343Z,100.00
2018-09-10T05:52:24.686Z,100.00
2018-09-10T05:55:29.060Z,100.00
2018-09-10T05:58:33.422Z,100.00
2018-09-10T06:01:37.705Z,100.00
2018-09-10T06:04:42.101Z,100.00
2018-09-10T06:07:46.469Z,100.00
2018-09-10T06:10:50.755Z,100.00
2018-09-10T06:13:55.485Z,100.00
2018-09-10T06:16:59.834Z,100.00
2018-09-10T06:20:04.115Z,100.00
2018-09-10T06:23:08.600Z,100.00
2018-09-10T06:26:12.967Z,100.00
2018-09-10T06:29:17.426Z,100.00
2018-09-10T06:32:21.729Z,100.00
2018-09-10T06:35:26.054Z,100.00
2018-09-10T06:38:30.342Z,100.00
2018-09-10T06:41:34.828Z,100.00
2018-09-10T06:44:39.057Z,100.00
2018-09-10T06:47:43.384Z,100.00
2018-09-10T06:50:47.746Z,100.00
2018-09-10T06:53:52.081Z,100.00
2018-09-10T06:56:56.364Z,100.00
2018-09-10T07:00:00.645Z,100.00
2018-09-10T07:03:05.109Z,100.00
2018-09-10T07:06:09.418Z,100.00
2018-09-10T07:09:13.777Z,100.00
2018-09-10T07:12:18.096Z,100.00
2018-09-10T07:15:22.386Z,100.00
2018-09-10T07:18:26.755Z,100.00
2018-09-10T07:21:31.211Z,100.00
2018-09-10T07:24:35.676Z,100.00
2018-09-10T07:27:40.065Z,100.00
2018-09-10T07:30:44.443Z,100.00
2018-09-10T07:33:48.729Z,100.00
2018-09-10T07:36:52.974Z,100.00
2018-09-10T07:39:57.348Z,100.00
2018-09-10T07:43:01.730Z,100.00
2018-09-10T07:46:06.130Z,100.00
2018-09-10T07:49:10.428Z,100.00
2018-09-10T07:52:14.796Z,100.00
2018-09-10T07:55:19.206Z,100.00
2018-09-10T07:58:23.445Z,100.00
2018-09-10T08:01:27.760Z,100.00
2018-09-10T08:04:32.116Z,100.00
2018-09-10T08:07:36.421Z,100.00
2018-09-10T08:10:40.857Z,100.00
2018-09-10T08:13:45.479Z,100.00
2018-09-10T08:16:49.745Z,99.29
2018-09-10T08:19:54.043Z,98.08
2018-09-10T08:22:58.302Z,96.56
2018-09-10T08:26:02.593Z,93.00
2018-09-10T08:29:07.082Z,91.81
2018-09-10T08:32:11.674Z,89.75
2018-09-10T08:35:16.004Z,92.24
2018-09-10T08:38:20.393Z,91.06
2018-09-10T08:41:24.809Z,87.92
2018-09-10T08:44:29.484Z,90.30
2018-09-10T08:47:33.813Z,89.65
2018-09-10T08:50:38.087Z,90.67
2018-09-10T08:53:42.350Z,90.38
2018-09-10T08:56:46.613Z,92.96
2018-09-10T08:59:50.872Z,93.34
2018-09-10T09:02:55.236Z,91.79
2018-09-10T09:05:59.562Z,90.02
2018-09-10T09:09:04.583Z,88.75
2018-09-10T09:12:08.994Z,86.64
2018-09-10T09:15:13.290Z,86.32
2018-09-10T09:18:17.610Z,84.34
2018-09-10T09:21:22.037Z,84.79
2018-09-10T09:24:26.307Z,81.98
2018-09-10T09:27:30.603Z,79.08
2018-09-10T09:30:34.930Z,77.17
2018-09-10T09:33:39.259Z,75.31
2018-09-10T09:36:48.900Z,75.04
2018-09-10T09:39:58.558Z,73.70
2018-09-10T09:43:08.160Z,75.45
2018-09-10T09:46:14.401Z,75.67
2018-09-10T09:49:18.795Z,73.91
2018-09-10T09:52:23.149Z,73.14
2018-09-10T09:55:27.464Z,73.40
2018-09-10T09:58:31.814Z,71.98
2018-09-10T10:01:45.165Z,69.59
2018-09-10T10:04:49.433Z,69.01
2018-09-10T10:07:53.795Z,68.92
2018-09-10T10:10:58.245Z,70.31
2018-09-10T10:14:02.630Z,71.24
2018-09-10T10:17:06.944Z,68.83
2018-09-10T10:20:11.484Z,66.30
2018-09-10T10:23:15.782Z,68.30
2018-09-10T10:26:20.120Z,67.16
2018-09-10T10:29:24.402Z,67.99
2018-09-10T10:32:28.754Z,67.73
2018-09-10T10:35:33.011Z,64.86
2018-09-10T10:38:37.342Z,65.29
2018-09-10T10:41:41.672Z,65.95
2018-09-10T10:44:46.033Z,64.74
2018-09-10T10:47:50.332Z,65.47
2018-09-10T10:50:54.890Z,65.15
2018-09-10T10:53:59.154Z,65.36
2018-09-10T10:57:03.484Z,67.42
2018-09-10T11:00:08.092Z,69.93
2018-09-10T11:03:12.444Z,70.28
2018-09-10T11:06:16.750Z,69.39
2018-09-10T11:09:21.056Z,70.00
2018-09-10T11:12:25.373Z,68.75
2018-09-10T11:15:29.729Z,67.71
2018-09-10T11:18:34.150Z,69.14
2018-09-10T11:21:38.441Z,67.26
2018-09-10T11:24:42.934Z,66.94
2018-09-10T11:27:47.562Z,67.24
2018-09-10T11:30:51.909Z,67.79
2018-09-10T11:33:56.308Z,67.38
2018-09-10T11:37:00.668Z,67.70
2018-09-10T11:40:05.031Z,69.43
2018-09-10T11:43:09.507Z,69.96
2018-09-10T11:46:13.820Z,67.92
2018-09-10T11:49:18.155Z,66.61
2018-09-10T11:52:22.634Z,65.03
2018-09-10T11:55:26.917Z,64.41
2018-09-10T11:58:31.347Z,63.54
2018-09-10T12:01:35.668Z,62.98
2018-09-10T12:04:39.996Z,64.59
2018-09-10T12:07:44.364Z,63.49
2018-09-10T12:10:48.780Z,63.55
2018-09-10T12:13:53.107Z,62.74
2018-09-10T12:16:57.799Z,59.18
2018-09-10T12:20:02.197Z,60.91
2018-09-10T12:23:06.911Z,60.42
2018-09-10T12:26:11.334Z,62.39
2018-09-10T12:29:15.749Z,62.54
2018-09-10T12:32:20.377Z,60.69
2018-09-10T12:35:24.696Z,60.09
2018-09-10T12:38:29.228Z,60.46
2018-09-10T12:41:33.642Z,59.68
2018-09-10T12:44:37.951Z,60.81
2018-09-10T12:47:42.282Z,60.46
2018-09-10T12:50:46.524Z,60.88
2018-09-10T12:53:50.906Z,62.62
2018-09-10T12:56:55.313Z,61.39
2018-09-10T12:59:59.617Z,62.98
2018-09-10T13:03:03.959Z,62.86
2018-09-10T13:06:08.324Z,62.34
2018-09-10T13:09:12.656Z,62.07
2018-09-10T13:12:17.240Z,62.46
2018-09-10T13:15:21.512Z,63.61
2018-09-10T13:18:26.197Z,62.39
2018-09-10T13:21:30.499Z,62.21
2018-09-10T13:24:35.064Z,62.68
2018-09-10T13:27:39.434Z,63.81
2018-09-10T13:30:43.774Z,63.88
2018-09-10T13:33:48.148Z,65.26
2018-09-10T13:36:52.509Z,65.15
2018-09-10T13:39:56.810Z,66.02
2018-09-10T13:43:01.171Z,67.03
2018-09-10T13:46:05.576Z,66.64
2018-09-10T13:49:09.840Z,66.50
2018-09-10T13:52:14.488Z,66.13
2018-09-10T13:55:18.843Z,66.49
2018-09-10T13:58:23.334Z,67.14
2018-09-10T14:01:27.653Z,67.83
2018-09-10T14:04:32.056Z,68.27
2018-09-10T14:07:36.361Z,68.19
2018-09-10T14:10:40.733Z,68.51
2018-09-10T14:13:45.148Z,68.13
2018-09-10T14:16:49.487Z,68.17
2018-09-10T14:19:54.133Z,68.87
2018-09-10T14:22:58.493Z,67.72
2018-09-10T14:26:03.324Z,67.87
2018-09-10T14:29:07.658Z,68.94
2018-09-10T14:32:12.273Z,68.56
2018-09-10T14:35:16.538Z,69.31
2018-09-10T14:38:21.008Z,70.00
2018-09-10T14:41:25.364Z,70.34
2018-09-10T14:44:29.694Z,70.29
2018-09-10T14:47:34.311Z,70.67
2018-09-10T14:50:38.745Z,72.43
2018-09-10T14:53:43.395Z,72.06
2018-09-10T14:56:47.819Z,72.95
2018-09-10T14:59:52.265Z,73.50
2018-09-10T15:02:57.382Z,72.99
2018-09-10T15:06:01.737Z,73.21
2018-09-10T15:09:08.330Z,73.11
2018-09-10T15:12:12.731Z,73.57
2018-09-10T15:15:17.157Z,74.72
2018-09-10T15:18:21.565Z,75.00
2018-09-10T15:21:25.820Z,74.60
2018-09-10T15:24:30.118Z,74.17
2018-09-10T15:27:34.437Z,73.59
2018-09-10T15:30:38.761Z,73.39
2018-09-10T15:33:43.047Z,73.55
2018-09-10T15:36:47.358Z,73.19
2018-09-10T15:39:51.901Z,73.99
2018-09-10T15:42:56.217Z,73.62
2018-09-10T15:46:00.617Z,73.96
2018-09-10T15:49:05.177Z,74.33
2018-09-10T15:52:09.692Z,73.78
2018-09-10T15:55:14.133Z,73.84
2018-09-10T15:58:18.435Z,74.47
2018-09-10T16:01:22.784Z,73.56
2018-09-10T16:04:27.191Z,74.61
2018-09-10T16:07:31.526Z,75.78
2018-09-10T16:10:35.990Z,76.46
2018-09-10T16:13:40.334Z,77.17
2018-09-10T16:16:44.729Z,77.34
2018-09-10T16:19:49.114Z,77.63
2018-09-10T16:22:54.463Z,78.16
2018-09-10T16:25:58.747Z,79.07
2018-09-10T16:29:03.931Z,78.43
2018-09-10T16:32:08.230Z,78.70
2018-09-10T16:35:12.552Z,79.48
2018-09-10T16:38:16.883Z,78.36
2018-09-10T16:41:21.341Z,78.83
2018-09-10T16:44:25.742Z,79.33
2018-09-10T16:47:30.142Z,79.13
2018-09-10T16:50:34.468Z,78.98
2018-09-10T16:53:38.816Z,79.82
2018-09-10T16:56:43.167Z,78.46
2018-09-10T16:59:47.574Z,79.24
2018-09-10T17:02:52.569Z,78.91
2018-09-10T17:05:56.887Z,78.17
2018-09-10T17:09:01.305Z,78.55
2018-09-10T17:12:05.637Z,79.13
2018-09-10T17:15:10.051Z,78.65
2018-09-10T17:18:14.474Z,78.98
2018-09-10T17:21:18.771Z,80.11
2018-09-10T17:24:23.062Z,80.26
2018-09-10T17:27:27.409Z,80.93
2018-09-10T17:30:31.897Z,81.38
2018-09-10T17:33:36.258Z,81.66
2018-09-10T17:36:40.710Z,82.50
2018-09-10T17:39:45.075Z,82.56
2018-09-10T17:42:49.433Z,82.56
2018-09-10T17:45:53.740Z,81.60
2018-09-10T17:48:58.165Z,82.33
2018-09-10T17:52:02.581Z,82.95
2018-09-10T17:55:07.036Z,83.60
2018-09-10T17:58:11.359Z,83.56
2018-09-10T18:01:16.320Z,83.25
2018-09-10T18:04:20.753Z,83.40
2018-09-10T18:07:25.105Z,84.19
2018-09-10T18:10:29.531Z,83.85
2018-09-10T18:13:34.022Z,84.60
2018-09-10T18:16:38.358Z,84.49
2018-09-10T18:19:42.820Z,84.59
2018-09-10T18:22:47.177Z,85.58
2018-09-10T18:25:51.550Z,86.67
2018-09-10T18:28:56.526Z,86.67
2018-09-10T18:32:00.956Z,86.43
2018-09-10T18:35:05.618Z,86.55
2018-09-10T18:38:10.035Z,86.90
2018-09-10T18:41:14.533Z,87.17
2018-09-10T18:44:19.007Z,88.18
2018-09-10T18:47:23.501Z,89.02
2018-09-10T18:50:28.095Z,89.27
2018-09-10T18:53:32.432Z,89.81
2018-09-10T18:56:36.884Z,90.46
2018-09-10T18:59:42.302Z,90.91
2018-09-10T19:02:47.107Z,91.91
2018-09-10T19:05:51.464Z,92.24
2018-09-10T19:08:55.972Z,91.86
2018-09-10T19:12:00.463Z,92.36
2018-09-10T19:15:05.309Z,92.48
2018-09-10T19:18:09.881Z,92.20
2018-09-10T19:21:14.641Z,92.48
2018-09-10T19:24:19.198Z,92.39
2018-09-10T19:27:23.703Z,92.85
2018-09-10T19:30:28.540Z,93.04
2018-09-10T19:33:33.212Z,93.81
2018-09-10T19:36:37.812Z,93.13
2018-09-10T19:39:42.472Z,93.24
2018-09-10T19:42:47.701Z,93.89
2018-09-10T19:45:53.023Z,95.33
2018-09-10T19:48:57.529Z,95.40
2018-09-10T19:52:01.942Z,96.03
2018-09-10T19:55:07.463Z,96.73
2018-09-10T19:58:12.207Z,97.05
2018-09-10T20:01:17.881Z,97.98
2018-09-10T20:04:22.361Z,98.10
2018-09-10T20:07:26.760Z,98.71
2018-09-10T20:10:31.208Z,99.05
2018-09-10T20:13:35.627Z,99.64
2018-09-10T20:16:40.028Z,100.00
2018-09-10T20:19:44.419Z,100.00
2018-09-10T20:22:48.763Z,100.00
2018-09-10T20:25:53.100Z,100.00
2018-09-10T20:28:58.931Z,100.00
2018-09-10T20:32:03.397Z,100.00
2018-09-10T20:35:08.290Z,100.00
2018-09-10T20:38:12.588Z,100.00
2018-09-10T20:41:17.845Z,100.00
2018-09-10T20:44:22.116Z,100.00
2018-09-10T20:47:26.418Z,100.00
2018-09-10T20:50:30.739Z,100.00
2018-09-10T20:53:35.026Z,100.00
2018-09-10T20:56:39.364Z,100.00
2018-09-10T20:59:43.783Z,100.00
2018-09-10T21:02:49.551Z,100.00
2018-09-10T21:05:53.946Z,100.00
2018-09-10T21:08:58.282Z,100.00
2018-09-10T21:12:02.606Z,100.00
2018-09-10T21:15:07.009Z,100.00
2018-09-10T21:18:11.566Z,100.00
2018-09-10T21:21:15.940Z,99.80
2018-09-10T21:24:20.245Z,99.39
2018-09-10T21:27:24.566Z,99.52
2018-09-10T21:30:28.909Z,99.41
2018-09-10T21:33:33.356Z,99.27
2018-09-10T21:36:37.645Z,98.67
2018-09-10T21:39:41.936Z,98.67
2018-09-10T21:42:46.284Z,98.75
2018-09-10T21:45:50.678Z,98.64
2018-09-10T21:48:55.024Z,98.57
2018-09-10T21:51:59.477Z,98.85
2018-09-10T21:55:03.863Z,98.50
2018-09-10T21:58:08.193Z,98.83
2018-09-10T22:01:12.477Z,98.96
2018-09-10T22:04:16.812Z,98.99
2018-09-10T22:07:21.147Z,99.44
2018-09-10T22:10:26.172Z,99.62
2018-09-10T22:13:30.521Z,100.00
2018-09-10T22:16:34.836Z,100.00
2018-09-10T22:19:39.225Z,100.00
2018-09-10T22:22:43.597Z,100.00
2018-09-10T22:25:47.982Z,100.00
2018-09-10T22:28:52.406Z,100.00
2018-09-10T22:31:56.682Z,100.00
2018-09-10T22:35:00.939Z,100.00
2018-09-10T22:38:05.514Z,100.00
2018-09-10T22:41:09.767Z,100.00
2018-09-10T22:44:14.238Z,100.00
2018-09-10T22:47:18.538Z,100.00
2018-09-10T22:50:22.966Z,100.00
2018-09-10T22:53:28.089Z,100.00
2018-09-10T22:56:32.403Z,100.00
2018-09-10T22:59:36.697Z,100.00
2018-09-10T23:02:41.031Z,100.00
2018-09-10T23:05:45.323Z,100.00
2018-09-10T23:08:50.039Z,100.00
2018-09-10T23:11:54.404Z,100.00
2018-09-10T23:14:58.713Z,100.00
2018-09-10T23:18:03.021Z,100.00
2018-09-10T23:21:07.470Z,100.00
2018-09-10T23:24:11.773Z,100.00
2018-09-10T23:27:16.065Z,100.00
2018-09-10T23:30:20.440Z,100.00
2018-09-10T23:33:24.737Z,100.00
2018-09-10T23:36:29.888Z,100.00
2018-09-10T23:39:34.139Z,100.00
2018-09-10T23:42:38.430Z,100.00
2018-09-10T23:45:42.820Z,100.00
2018-09-10T23:48:48.229Z,100.00
2018-09-10T23:51:52.609Z,100.00
2018-09-10T23:54:56.956Z,100.00
2018-09-10T23:58:01.215Z,100.00
